Time;durP1;ratioP1;P1;durP2;ratioP2;P2;SDS_P1;SDS_P2;PMS_P1;PMS_P2;Temp;Humidity;BMP_temperature;BMP_pressure;BME280_temperature;BME280_humidity;BME280_pressure;Samples;Min_cycle;Max_cycle;Signal;HPM_P1;HPM_P2
2023/08/04 00:00:20;;;;;;;;;;;21.20;69.40;;;;;;4999373;28;821;-73
2023/08/04 00:02:45;;;;;;;;;;;21.20;69.40;;;;;;5000651;28;935;-73
2023/08/04 00:05:11;;;;;;;;;;;21.20;69.40;;;;;;4983843;28;1272;-73
2023/08/04 00:07:36;;;;;;;;;;;21.20;69.40;;;;;;4995767;28;809;-73
2023/08/04 00:10:02;;;;;;;;;;;21.20;69.40;;;;;;4983537;28;1273;-73
2023/08/04 00:12:28;;;;;;;;;;;21.20;69.40;;;;;;4983892;28;835;-73
2023/08/04 00:14:53;;;;;;;;;;;21.20;69.40;;;;;;4999947;28;1248;-73
2023/08/04 00:17:18;;;;;;;;;;;21.20;69.40;;;;;;4998253;28;1903;-73
2023/08/04 00:19:44;;;;;;;;;;;21.20;69.50;;;;;;4995930;28;1392;-73
2023/08/04 00:22:09;;;;;;;;;;;21.20;69.40;;;;;;4994824;28;809;-73
2023/08/04 00:24:35;;;;;;;;;;;21.20;69.40;;;;;;5001158;28;1270;-73
2023/08/04 00:27:00;;;;;;;;;;;21.20;69.40;;;;;;4999273;28;1316;-73
2023/08/04 00:29:26;;;;;;;;;;;21.20;69.40;;;;;;4983978;28;1271;-73
2023/08/04 00:31:52;;;;;;;;;;;21.20;69.50;;;;;;4997885;28;991;-74
2023/08/04 00:34:17;;;;;;;;;;;21.20;69.50;;;;;;4987204;28;1280;-73
2023/08/04 00:36:44;;;;;;;;;;;21.20;69.50;;;;;;4997952;28;1965;-73
2023/08/04 00:39:10;;;;;;;;;;;21.20;69.50;;;;;;4997213;28;875;-74
2023/08/04 00:41:35;;;;;;;;;;;21.20;69.50;;;;;;4996881;28;905;-73
2023/08/04 00:44:01;;;;;;;;;;;21.20;69.50;;;;;;4996319;28;1292;-73
2023/08/04 00:46:26;;;;;;;;;;;21.20;69.50;;;;;;4998611;28;994;-74
2023/08/04 00:48:52;;;;;;;;;;;21.20;69.50;;;;;;4996972;28;1042;-74
2023/08/04 00:51:17;;;;;;;;;;;21.20;69.50;;;;;;4999249;28;829;-73
2023/08/04 00:53:43;;;;;;;;;;;21.20;69.50;;;;;;4994495;28;1330;-74
2023/08/04 00:56:08;;;;;;;;;;;21.20;69.50;;;;;;4996724;28;1911;-73
2023/08/04 00:58:34;;;;;;;;;;;21.20;69.50;;;;;;4987650;28;855;-73
2023/08/04 01:00:59;;;;;;;;;;;21.20;69.50;;;;;;5000524;28;1022;-73
2023/08/04 01:03:25;;;;;;;;;;;21.20;69.50;;;;;;5001176;28;1275;-74
2023/08/04 01:05:59;;;;;;;;;;;21.20;69.50;;;;;;5001990;28;876;-74
2023/08/04 01:08:26;;;;;;;;;;;21.20;69.60;;;;;;5000596;28;928;-74
2023/08/04 01:10:54;;;;;;;;;;;21.20;69.50;;;;;;4992336;28;1087;-73
2023/08/04 01:13:21;;;;;;;;;;;21.20;69.50;;;;;;5000478;28;1273;-73
2023/08/04 01:15:47;;;;;;;;;;;21.20;69.60;;;;;;4988387;28;1911;-74
2023/08/04 01:18:13;;;;;;;;;;;21.20;69.60;;;;;;4983697;28;1366;-73
2023/08/04 01:20:38;;;;;;;;;;;21.20;69.60;;;;;;4999242;28;824;-73
2023/08/04 01:23:04;;;;;;;;;;;21.20;69.60;;;;;;4990475;28;1287;-74
2023/08/04 01:25:29;;;;;;;;;;;21.20;69.60;;;;;;4995157;28;1690;-73
2023/08/04 01:27:56;;;;;;;;;;;21.20;69.60;;;;;;4997684;28;1069;-73
2023/08/04 01:30:22;;;;;;;;;;;21.20;69.60;;;;;;5004421;28;844;-73
2023/08/04 01:32:48;;;;;;;;;;;21.20;69.60;;;;;;4995319;28;857;-73
2023/08/04 01:35:13;;;;;;;;;;;21.20;69.60;;;;;;4986946;28;1243;-74
2023/08/04 01:37:39;;;;;;;;;;;21.20;69.60;;;;;;4998434;28;1910;-73
2023/08/04 01:40:05;;;;;;;;;;;21.20;69.70;;;;;;5000360;28;1074;-73
2023/08/04 01:42:30;;;;;;;;;;;21.20;69.70;;;;;;4999683;28;1051;-73
2023/08/04 01:44:56;;;;;;;;;;;21.20;69.70;;;;;;5000354;28;1370;-73
2023/08/04 01:47:21;;;;;;;;;;;21.20;69.70;;;;;;5002478;28;814;-73
2023/08/04 01:49:47;;;;;;;;;;;21.20;69.70;;;;;;5001905;28;927;-73
2023/08/04 01:52:12;;;;;;;;;;;21.20;69.70;;;;;;4995598;28;1007;-73
2023/08/04 01:54:38;;;;;;;;;;;21.20;69.70;;;;;;4986202;28;1251;-74
2023/08/04 01:57:03;;;;;;;;;;;21.20;69.70;;;;;;5001148;28;1985;-73
2023/08/04 01:59:29;;;;;;;;;;;21.20;69.70;;;;;;4998084;28;839;-73
2023/08/04 02:01:54;;;;;;;;;;;21.20;69.70;;;;;;4999640;28;904;-73
2023/08/04 02:04:20;;;;;;;;;;;21.20;69.70;;;;;;4997596;28;1273;-74
2023/08/04 02:06:45;;;;;;;;;;;21.20;69.70;;;;;;4999786;28;891;-73
2023/08/04 02:09:12;;;;;;;;;;;21.20;69.70;;;;;;4996726;28;822;-73
2023/08/04 02:11:37;;;;;;;;;;;21.20;69.70;;;;;;5002213;28;880;-74
2023/08/04 02:14:03;;;;;;;;;;;21.20;69.80;;;;;;4998341;28;1225;-73
2023/08/04 02:16:28;;;;;;;;;;;21.20;69.80;;;;;;5000153;28;1934;-73
2023/08/04 02:18:59;;;;;;;;;;;21.20;69.70;;;;;;5001743;28;1265;-74
2023/08/04 02:21:25;;;;;;;;;;;21.20;69.70;;;;;;4984698;28;881;-74
2023/08/04 02:23:50;;;;;;;;;;;21.20;69.80;;;;;;4982368;28;1272;-73
2023/08/04 02:26:16;;;;;;;;;;;21.20;69.80;;;;;;4989748;28;1297;-75
2023/08/04 02:28:41;;;;;;;;;;;21.20;69.70;;;;;;5006124;28;1492;-74
2023/08/04 02:31:06;;;;;;;;;;;21.20;69.70;;;;;;5001784;28;1369;-74
2023/08/04 02:33:32;;;;;;;;;;;21.20;69.70;;;;;;4982928;28;1857;-75
2023/08/04 02:36:01;;;;;;;;;;;21.20;69.80;;;;;;4982733;28;1910;-73
2023/08/04 02:38:26;;;;;;;;;;;21.20;69.70;;;;;;5002542;28;1372;-73
2023/08/04 02:40:52;;;;;;;;;;;21.20;69.80;;;;;;4991350;28;1252;-73
2023/08/04 02:43:17;;;;;;;;;;;21.20;69.80;;;;;;4999997;28;1289;-73
2023/08/04 02:45:47;;;;;;;;;;;21.20;69.80;;;;;;4996388;28;943;-73
2023/08/04 02:48:12;;;;;;;;;;;21.20;69.80;;;;;;4998657;28;904;-73
2023/08/04 02:50:38;;;;;;;;;;;21.20;69.80;;;;;;4997330;28;970;-73
2023/08/04 02:53:03;;;;;;;;;;;21.20;69.80;;;;;;4997300;28;1269;-73
2023/08/04 02:55:29;;;;;;;;;;;21.20;69.80;;;;;;5001135;28;832;-74
2023/08/04 02:57:54;;;;;;;;;;;21.20;69.80;;;;;;4999801;28;1966;-73
2023/08/04 03:00:20;;;;;;;;;;;21.20;69.80;;;;;;4997827;28;843;-73
2023/08/04 03:02:48;;;;;;;;;;;21.20;69.80;;;;;;4997652;28;858;-74
2023/08/04 03:05:13;;;;;;;;;;;21.20;69.80;;;;;;4978024;28;1360;-74
2023/08/04 03:07:39;;;;;;;;;;;21.20;69.80;;;;;;4990185;28;1102;-73
2023/08/04 03:10:05;;;;;;;;;;;21.20;69.80;;;;;;4999286;28;794;-73
2023/08/04 03:12:30;;;;;;;;;;;21.20;69.80;;;;;;4991137;28;1338;-73
2023/08/04 03:14:56;;;;;;;;;;;21.20;69.80;;;;;;4989537;28;1407;-74
2023/08/04 03:17:21;;;;;;;;;;;21.20;69.80;;;;;;4996740;28;1902;-73
2023/08/04 03:19:47;;;;;;;;;;;21.20;69.80;;;;;;4995346;28;1261;-74
2023/08/04 03:22:12;;;;;;;;;;;21.20;69.80;;;;;;4996764;28;863;-72
2023/08/04 03:24:38;;;;;;;;;;;21.20;69.80;;;;;;4998315;28;1298;-72
2023/08/04 03:27:03;;;;;;;;;;;21.20;69.80;;;;;;4985155;28;1188;-72
2023/08/04 03:29:29;;;;;;;;;;;21.20;69.80;;;;;;4999444;28;832;-73
2023/08/04 03:31:54;;;;;;;;;;;21.20;69.80;;;;;;4999590;28;951;-72
2023/08/04 03:34:19;;;;;;;;;;;21.20;69.90;;;;;;5000194;28;1288;-74
2023/08/04 03:36:45;;;;;;;;;;;21.20;69.90;;;;;;5001025;28;1906;-75
2023/08/04 03:39:10;;;;;;;;;;;21.20;69.90;;;;;;5004248;28;823;-75
2023/08/04 03:41:36;;;;;;;;;;;21.20;69.90;;;;;;4998324;28;999;-75
2023/08/04 03:44:01;;;;;;;;;;;21.20;69.90;;;;;;5000416;28;1285;-75
2023/08/04 03:46:27;;;;;;;;;;;21.20;69.90;;;;;;5005770;28;931;-75
2023/08/04 03:48:52;;;;;;;;;;;21.20;69.90;;;;;;4996464;28;1088;-72
2023/08/04 03:51:18;;;;;;;;;;;21.20;69.90;;;;;;5002926;28;809;-74
2023/08/04 03:53:43;;;;;;;;;;;21.20;69.90;;;;;;4997815;28;1335;-75
2023/08/04 03:56:09;;;;;;;;;;;21.20;69.90;;;;;;5000353;28;1914;-74
2023/08/04 03:58:34;;;;;;;;;;;21.20;69.90;;;;;;5000828;28;915;-74
2023/08/04 04:01:00;;;;;;;;;;;21.20;69.90;;;;;;4997278;28;1074;-75
2023/08/04 04:03:25;;;;;;;;;;;21.20;69.90;;;;;;5001656;28;1267;-74
2023/08/04 04:05:51;;;;;;;;;;;21.20;69.90;;;;;;4998839;28;943;-74
2023/08/04 04:08:16;;;;;;;;;;;21.20;70.00;;;;;;4997791;28;1019;-74
2023/08/04 04:10:41;;;;;;;;;;;21.20;69.90;;;;;;4995493;28;843;-71
2023/08/04 04:13:07;;;;;;;;;;;21.20;69.90;;;;;;4996983;28;1270;-71
2023/08/04 04:15:32;;;;;;;;;;;21.20;69.90;;;;;;4996148;28;936;-72
2023/08/04 04:17:58;;;;;;;;;;;21.20;69.90;;;;;;4998186;28;1961;-71
2023/08/04 04:20:23;;;;;;;;;;;21.20;70.00;;;;;;5000057;28;1312;-73
2023/08/04 04:22:49;;;;;;;;;;;21.20;70.00;;;;;;4995442;28;876;-73
2023/08/04 04:25:14;;;;;;;;;;;21.20;70.00;;;;;;4997869;28;1251;-73
2023/08/04 04:27:40;;;;;;;;;;;21.20;70.00;;;;;;4999568;28;1268;-72
2023/08/04 04:30:05;;;;;;;;;;;21.20;70.00;;;;;;4998024;28;821;-71
2023/08/04 04:32:31;;;;;;;;;;;21.20;70.00;;;;;;5004088;28;806;-71
2023/08/04 04:34:59;;;;;;;;;;;21.20;70.00;;;;;;5003958;28;1358;-75
2023/08/04 04:37:25;;;;;;;;;;;21.20;70.00;;;;;;4998605;28;1951;-75
2023/08/04 04:39:50;;;;;;;;;;;21.20;70.00;;;;;;4997565;28;1053;-74
2023/08/04 04:42:16;;;;;;;;;;;21.20;70.00;;;;;;5004730;28;872;-74
2023/08/04 04:44:42;;;;;;;;;;;21.20;70.00;;;;;;5000163;28;1255;-73
2023/08/04 04:47:09;;;;;;;;;;;21.20;70.00;;;;;;5001918;28;863;-72
2023/08/04 04:49:34;;;;;;;;;;;21.20;70.00;;;;;;4997915;28;912;-74
2023/08/04 04:52:00;;;;;;;;;;;21.20;70.00;;;;;;4999944;28;842;-71
2023/08/04 04:54:26;;;;;;;;;;;21.20;70.00;;;;;;4992277;28;1765;-74
2023/08/04 04:56:51;;;;;;;;;;;21.20;70.00;;;;;;4999424;28;1914;-73
2023/08/04 04:59:19;;;;;;;;;;;21.20;70.00;;;;;;5002532;28;859;-69
2023/08/04 05:01:45;;;;;;;;;;;21.20;70.00;;;;;;4995721;28;1813;-74
2023/08/04 05:04:10;;;;;;;;;;;21.20;70.00;;;;;;4986810;28;1454;-68
2023/08/04 05:06:36;;;;;;;;;;;21.20;70.10;;;;;;5000245;28;1044;-69
2023/08/04 05:09:01;;;;;;;;;;;21.20;70.10;;;;;;4999151;28;927;-69
2023/08/04 05:11:27;;;;;;;;;;;21.20;70.10;;;;;;4998018;28;833;-68
2023/08/04 05:13:53;;;;;;;;;;;21.20;70.10;;;;;;5001853;28;1287;-73
2023/08/04 05:16:18;;;;;;;;;;;21.20;70.90;;;;;;4996887;28;1890;-72
2023/08/04 05:18:44;;;;;;;;;;;21.20;70.00;;;;;;4998033;28;1238;-72
2023/08/04 05:21:09;;;;;;;;;;;21.20;70.10;;;;;;5000104;28;836;-70
2023/08/04 05:23:35;;;;;;;;;;;21.20;70.10;;;;;;5005277;28;1225;-72
2023/08/04 05:26:00;;;;;;;;;;;21.20;70.10;;;;;;5002721;28;846;-70
2023/08/04 05:28:30;;;;;;;;;;;21.20;70.10;;;;;;4986005;28;1307;-70
2023/08/04 05:30:57;;;;;;;;;;;21.20;70.10;;;;;;5000175;28;848;-70
2023/08/04 05:33:23;;;;;;;;;;;21.20;70.10;;;;;;4988466;28;1255;-71
2023/08/04 05:35:48;;;;;;;;;;;21.20;70.10;;;;;;5001116;28;1919;-71
2023/08/04 05:38:14;;;;;;;;;;;21.20;70.10;;;;;;4987239;28;991;-72
2023/08/04 05:40:43;;;;;;;;;;;21.20;70.10;;;;;;5003999;28;1580;-72
2023/08/04 05:43:08;;;;;;;;;;;21.20;70.10;;;;;;4992106;28;1383;-71
2023/08/04 05:45:37;;;;;;;;;;;21.20;70.10;;;;;;5005489;28;1222;-72
2023/08/04 05:48:03;;;;;;;;;;;21.20;70.10;;;;;;4987612;28;864;-72
2023/08/04 05:50:29;;;;;;;;;;;21.20;70.10;;;;;;4993465;28;1368;-72
2023/08/04 05:52:55;;;;;;;;;;;21.20;70.10;;;;;;5000257;28;789;-72
2023/08/04 05:55:21;;;;;;;;;;;21.20;70.10;;;;;;4996552;28;1274;-71
2023/08/04 05:57:46;;;;;;;;;;;21.20;70.10;;;;;;4995293;28;1968;-70
2023/08/04 06:00:12;;;;;;;;;;;21.20;70.10;;;;;;4997746;28;843;-70
2023/08/04 06:02:37;;;;;;;;;;;21.20;70.20;;;;;;5000162;28;963;-71
2023/08/04 06:05:03;;;;;;;;;;;21.20;70.10;;;;;;4999719;28;1264;-70
2023/08/04 06:07:28;;;;;;;;;;;21.20;70.10;;;;;;5001537;28;881;-70
2023/08/04 06:09:54;;;;;;;;;;;21.20;70.10;;;;;;4998808;28;900;-69
2023/08/04 06:12:19;;;;;;;;;;;21.20;70.10;;;;;;4998660;28;1011;-70
2023/08/04 06:14:45;;;;;;;;;;;21.20;70.00;;;;;;5000654;28;1270;-69
2023/08/04 06:17:10;;;;;;;;;;;21.20;69.90;;;;;;4983278;28;1887;-69
2023/08/04 06:19:38;;;;;;;;;;;21.20;69.90;;;;;;5000752;28;887;-70
2023/08/04 06:22:03;;;;;;;;;;;21.20;69.80;;;;;;5003357;28;900;-69
2023/08/04 06:24:29;;;;;;;;;;;21.20;69.80;;;;;;4995131;28;1558;-71
2023/08/04 06:26:54;;;;;;;;;;;21.20;69.90;;;;;;4997841;28;847;-69
2023/08/04 06:29:20;;;;;;;;;;;21.20;69.70;;;;;;5000462;28;1481;-68
2023/08/04 06:31:45;;;;;;;;;;;21.20;69.70;;;;;;4998538;28;1434;-69
2023/08/04 06:34:11;;;;;;;;;;;21.20;69.60;;;;;;4998349;28;1365;-75
2023/08/04 06:36:36;;;;;;;;;;;21.20;69.40;;;;;;4997196;28;1907;-75
2023/08/04 06:39:01;;;;;;;;;;;21.20;69.40;;;;;;5001020;28;1217;-76
2023/08/04 06:41:27;;;;;;;;;;;21.20;69.30;;;;;;4998185;28;783;-75
2023/08/04 06:43:52;;;;;;;;;;;21.20;69.40;;;;;;4989602;28;1605;-72
2023/08/04 06:46:18;;;;;;;;;;;21.10;69.30;;;;;;5000606;28;911;-70
2023/08/04 06:48:43;;;;;;;;;;;21.20;69.10;;;;;;4998435;28;880;-71
2023/08/04 06:51:09;;;;;;;;;;;21.10;69.10;;;;;;4997175;28;1185;-69
2023/08/04 06:53:34;;;;;;;;;;;21.20;69.00;;;;;;4998216;28;1244;-68
2023/08/04 06:56:00;;;;;;;;;;;21.20;69.00;;;;;;4999836;28;1906;-70
2023/08/04 06:58:25;;;;;;;;;;;21.10;68.90;;;;;;4997404;28;935;-73
2023/08/04 07:00:51;;;;;;;;;;;21.10;69.00;;;;;;5000658;28;1081;-72
2023/08/04 07:03:16;;;;;;;;;;;21.10;69.00;;;;;;4985053;28;1310;-72
2023/08/04 07:05:42;;;;;;;;;;;21.10;68.90;;;;;;4997888;28;856;-73
2023/08/04 07:08:07;;;;;;;;;;;21.10;68.90;;;;;;4998421;28;947;-72
2023/08/04 07:10:33;;;;;;;;;;;21.20;68.90;;;;;;5004645;28;816;-71
2023/08/04 07:12:59;;;;;;;;;;;21.20;68.90;;;;;;4998811;28;842;-73
2023/08/04 07:15:24;;;;;;;;;;;21.20;68.80;;;;;;5005175;28;1248;-73
2023/08/04 07:17:49;;;;;;;;;;;21.20;68.80;;;;;;4998365;28;1906;-73
2023/08/04 07:20:15;;;;;;;;;;;21.10;68.80;;;;;;5003940;28;1381;-74
2023/08/04 07:22:41;;;;;;;;;;;21.10;68.80;;;;;;4985369;28;899;-74
2023/08/04 07:25:06;;;;;;;;;;;21.10;68.80;;;;;;4986409;28;1342;-74
2023/08/04 07:27:32;;;;;;;;;;;21.10;68.80;;;;;;5000617;28;928;-74
2023/08/04 07:29:57;;;;;;;;;;;21.10;68.70;;;;;;4997137;28;884;-74
2023/08/04 07:32:23;;;;;;;;;;;21.10;68.70;;;;;;4990780;28;1245;-73
2023/08/04 07:34:48;;;;;;;;;;;21.10;68.70;;;;;;4997561;28;1261;-73
2023/08/04 07:37:14;;;;;;;;;;;21.10;68.70;;;;;;4999269;28;1899;-73
2023/08/04 07:39:39;;;;;;;;;;;21.10;68.80;;;;;;4986364;28;1298;-73
2023/08/04 07:42:04;;;;;;;;;;;21.10;68.90;;;;;;4998221;28;1070;-74
2023/08/04 07:44:30;;;;;;;;;;;21.10;68.80;;;;;;4983396;28;1354;-74
2023/08/04 07:46:55;;;;;;;;;;;21.10;68.80;;;;;;4999119;28;1158;-74
2023/08/04 07:49:21;;;;;;;;;;;21.10;68.90;;;;;;5000308;28;944;-73
2023/08/04 07:51:46;;;;;;;;;;;21.10;68.90;;;;;;4994629;28;1011;-73
2023/08/04 07:54:12;;;;;;;;;;;21.10;69.00;;;;;;5001332;28;1259;-75
2023/08/04 07:56:37;;;;;;;;;;;21.10;69.00;;;;;;4999691;28;1969;-75
2023/08/04 07:59:03;;;;;;;;;;;21.10;69.00;;;;;;5000068;28;1019;-75
2023/08/04 08:01:28;;;;;;;;;;;21.20;69.00;;;;;;5000572;28;844;-75
2023/08/04 08:03:54;;;;;;;;;;;21.20;69.00;;;;;;4999636;28;1256;-74
2023/08/04 08:06:19;;;;;;;;;;;21.10;68.90;;;;;;5000892;28;1026;-75
2023/08/04 08:08:46;;;;;;;;;;;21.10;68.70;;;;;;5006733;28;1018;-75
2023/08/04 08:11:11;;;;;;;;;;;21.10;68.70;;;;;;4987560;28;1399;-73
2023/08/04 08:13:38;;;;;;;;;;;21.10;68.70;;;;;;5003608;28;1699;-73
2023/08/04 08:16:07;;;;;;;;;;;21.10;68.60;;;;;;4987043;28;1894;-73
2023/08/04 08:18:32;;;;;;;;;;;21.10;68.50;;;;;;5002398;28;1146;-73
2023/08/04 08:20:58;;;;;;;;;;;21.10;68.40;;;;;;5000051;28;1066;-73
2023/08/04 08:23:23;;;;;;;;;;;21.10;68.40;;;;;;5001995;28;1291;-73
2023/08/04 08:25:49;;;;;;;;;;;21.10;68.40;;;;;;4975711;28;1257;-73
2023/08/04 08:28:14;;;;;;;;;;;21.10;68.40;;;;;;5000331;28;1358;-72
2023/08/04 08:30:43;;;;;;;;;;;21.10;68.50;;;;;;5002702;28;1086;-72
2023/08/04 08:33:08;;;;;;;;;;;21.10;68.60;;;;;;5002442;28;1283;-72
2023/08/04 08:35:34;;;;;;;;;;;21.10;68.90;;;;;;5003010;28;904;-73
2023/08/04 08:37:59;;;;;;;;;;;21.10;68.90;;;;;;4994413;28;1952;-71
2023/08/04 08:40:25;;;;;;;;;;;21.10;68.90;;;;;;4993724;28;877;-71
2023/08/04 08:42:51;;;;;;;;;;;21.10;69.00;;;;;;5002422;28;860;-77
2023/08/04 08:45:17;;;;;;;;;;;21.20;69.00;;;;;;4987805;28;1269;-76
2023/08/04 08:47:43;;;;;;;;;;;21.20;69.00;;;;;;5002551;28;849;-73
2023/08/04 08:50:08;;;;;;;;;;;21.20;69.00;;;;;;4998923;28;916;-73
2023/08/04 08:52:38;;;;;;;;;;;21.10;68.90;;;;;;4989079;28;813;-72
2023/08/04 08:55:04;;;;;;;;;;;21.20;68.80;;;;;;5003173;28;1235;-72
2023/08/04 08:57:29;;;;;;;;;;;21.10;68.80;;;;;;5001956;28;1934;-71
2023/08/04 09:00:01;;;;;;;;;;;21.20;68.80;;;;;;5003989;28;820;-70
2023/08/04 09:02:26;;;;;;;;;;;21.20;68.80;;;;;;4990037;28;864;-71
2023/08/04 09:04:52;;;;;;;;;;;21.20;68.80;;;;;;4999877;28;2367;-70
2023/08/04 09:07:17;;;;;;;;;;;21.20;68.80;;;;;;5004993;28;1243;-71
2023/08/04 09:09:43;;;;;;;;;;;21.20;68.80;;;;;;5000848;28;1278;-70
2023/08/04 09:12:08;;;;;;;;;;;21.20;68.80;;;;;;5001387;28;817;-71
2023/08/04 09:14:47;;;;;;;;;;;21.20;68.80;;;;;;5003400;28;1282;-70
2023/08/04 09:17:25;;;;;;;;;;;21.20;68.70;;;;;;5002250;28;1957;-70
2023/08/04 09:19:51;;;;;;;;;;;21.20;68.70;;;;;;4998262;28;1275;-72
2023/08/04 09:22:16;;;;;;;;;;;21.20;68.70;;;;;;5002931;28;884;-72
2023/08/04 09:24:51;;;;;;;;;;;21.20;68.80;;;;;;5002277;28;1373;-72
2023/08/04 09:27:27;;;;;;;;;;;21.20;68.80;;;;;;5000929;28;1532;-72
2023/08/04 09:29:56;;;;;;;;;;;21.20;68.90;;;;;;4987925;28;1328;-72
2023/08/04 09:32:22;;;;;;;;;;;21.20;68.90;;;;;;5004532;28;1471;-72
2023/08/04 09:34:56;;;;;;;;;;;21.20;68.90;;;;;;5001760;28;1382;-73
2023/08/04 09:37:21;;;;;;;;;;;21.20;68.90;;;;;;4985869;28;1961;-70
2023/08/04 09:39:47;;;;;;;;;;;21.20;69.00;;;;;;4998310;28;1622;-74
2023/08/04 09:42:15;;;;;;;;;;;21.20;69.10;;;;;;4991611;28;1200;-72
2023/08/04 09:44:40;;;;;;;;;;;21.20;68.80;;;;;;4997734;28;1284;-70
2023/08/04 09:47:06;;;;;;;;;;;21.20;68.50;;;;;;4999486;28;852;-68
2023/08/04 09:49:31;;;;;;;;;;;21.20;68.50;;;;;;4997470;28;920;-69
2023/08/04 09:51:57;;;;;;;;;;;21.20;68.60;;;;;;4995869;28;818;-69
2023/08/04 09:54:22;;;;;;;;;;;21.20;68.40;;;;;;4994601;28;1347;-72
2023/08/04 09:56:49;;;;;;;;;;;21.20;68.30;;;;;;4998898;28;1961;-68
2023/08/04 09:59:14;;;;;;;;;;;21.30;68.70;;;;;;4995403;28;1346;-68
2023/08/04 10:01:40;;;;;;;;;;;21.30;68.40;;;;;;5002323;28;946;-71
2023/08/04 10:04:06;;;;;;;;;;;21.30;68.30;;;;;;4986744;28;1291;-70
2023/08/04 10:06:33;;;;;;;;;;;21.30;68.30;;;;;;4999845;28;883;-71
2023/08/04 10:08:58;;;;;;;;;;;21.30;68.20;;;;;;4991898;28;1648;-69
2023/08/04 10:11:24;;;;;;;;;;;21.30;68.20;;;;;;4996703;28;886;-72
2023/08/04 10:13:50;;;;;;;;;;;21.30;68.20;;;;;;4998133;28;1335;-71
2023/08/04 10:16:17;;;;;;;;;;;21.40;68.20;;;;;;4997808;28;1898;-71
2023/08/04 10:18:45;;;;;;;;;;;21.30;68.20;;;;;;4990251;28;1257;-71
2023/08/04 10:21:11;;;;;;;;;;;21.30;68.10;;;;;;4997401;28;853;-72
2023/08/04 10:23:36;;;;;;;;;;;21.30;68.10;;;;;;4998040;28;1642;-70
2023/08/04 10:26:02;;;;;;;;;;;21.30;68.10;;;;;;4971121;28;891;-71
2023/08/04 10:28:31;;;;;;;;;;;21.30;68.00;;;;;;4999799;28;1276;-68
2023/08/04 10:31:11;;;;;;;;;;;21.30;68.00;;;;;;4995977;28;901;-67
2023/08/04 10:33:37;;;;;;;;;;;21.30;67.90;;;;;;4999144;28;1386;-68
2023/08/04 10:36:09;;;;;;;;;;;21.30;68.00;;;;;;4995704;28;1961;-69
2023/08/04 10:38:42;;;;;;;;;;;21.30;68.10;;;;;;4983813;28;890;-69
2023/08/04 10:41:07;;;;;;;;;;;21.30;68.20;;;;;;4998390;28;959;-71
2023/08/04 10:43:36;;;;;;;;;;;21.30;68.10;;;;;;4998286;28;1366;-71
2023/08/04 10:46:05;;;;;;;;;;;21.30;68.10;;;;;;4984815;28;927;-70
2023/08/04 10:48:34;;;;;;;;;;;21.30;68.10;;;;;;4991734;28;892;-72
2023/08/04 10:50:59;;;;;;;;;;;21.20;68.00;;;;;;4977309;28;1556;-69
2023/08/04 10:53:25;;;;;;;;;;;21.20;68.10;;;;;;4998530;28;1211;-71
2023/08/04 10:55:54;;;;;;;;;;;21.30;68.10;;;;;;5001403;28;1975;-72
2023/08/04 10:58:20;;;;;;;;;;;21.30;68.10;;;;;;4998565;28;919;-72
2023/08/04 11:00:46;;;;;;;;;;;21.30;68.00;;;;;;4999411;28;872;-71
2023/08/04 11:03:25;;;;;;;;;;;21.30;68.10;;;;;;4997315;28;1350;-75
2023/08/04 11:05:51;;;;;;;;;;;21.30;68.10;;;;;;5000865;28;979;-70
2023/08/04 11:08:17;;;;;;;;;;;21.30;68.10;;;;;;4996494;28;922;-69
2023/08/04 11:10:49;;;;;;;;;;;21.30;68.10;;;;;;5000647;28;927;-70
2023/08/04 11:13:15;;;;;;;;;;;21.30;68.00;;;;;;4998490;28;1264;-70
2023/08/04 11:15:42;;;;;;;;;;;21.30;68.10;;;;;;4997379;28;967;-68
2023/08/04 11:18:14;;;;;;;;;;;21.30;68.10;;;;;;4997624;28;1968;-68
2023/08/04 11:20:40;;;;;;;;;;;21.30;67.70;;;;;;4998750;28;820;-69
2023/08/04 11:23:07;;;;;;;;;;;21.30;67.70;;;;;;4999460;28;1289;-69
2023/08/04 11:25:33;;;;;;;;;;;21.30;67.50;;;;;;4986524;28;1387;-70
2023/08/04 11:28:02;;;;;;;;;;;21.30;67.30;;;;;;4997866;28;1283;-69
2023/08/04 11:30:27;;;;;;;;;;;21.30;67.60;;;;;;4997262;28;884;-69
2023/08/04 11:32:53;;;;;;;;;;;21.30;67.60;;;;;;4995486;28;832;-70
2023/08/04 11:35:18;;;;;;;;;;;21.30;67.40;;;;;;4998362;28;1648;-70
2023/08/04 11:37:44;;;;;;;;;;;21.30;67.60;;;;;;4997406;28;1906;-71
2023/08/04 11:40:22;;;;;;;;;;;21.30;67.60;;;;;;4996539;28;1398;-74
2023/08/04 11:42:48;;;;;;;;;;;21.30;67.70;;;;;;5002512;28;1017;-74
2023/08/04 11:45:13;;;;;;;;;;;21.30;67.20;;;;;;4999600;28;1188;-74
2023/08/04 11:47:39;;;;;;;;;;;21.30;67.20;;;;;;4998937;28;908;-73
2023/08/04 11:50:05;;;;;;;;;;;21.30;67.10;;;;;;4999144;28;1433;-73
2023/08/04 11:52:30;;;;;;;;;;;21.30;67.00;;;;;;5001173;28;896;-73
2023/08/04 11:54:58;;;;;;;;;;;21.30;67.90;;;;;;4984061;28;1348;-72
2023/08/04 11:57:24;;;;;;;;;;;21.30;67.10;;;;;;4998852;28;1930;-72
2023/08/04 11:59:50;;;;;;;;;;;21.30;67.10;;;;;;5000914;28;959;-72
2023/08/04 12:02:15;;;;;;;;;;;21.30;67.10;;;;;;4984313;28;835;-72
2023/08/04 12:04:41;;;;;;;;;;;21.30;67.40;;;;;;5001036;28;1320;-71
2023/08/04 12:07:07;;;;;;;;;;;21.30;67.30;;;;;;5000266;28;1263;-72
2023/08/04 12:09:32;;;;;;;;;;;21.30;67.30;;;;;;4996538;28;1240;-72
2023/08/04 12:11:58;;;;;;;;;;;21.30;67.30;;;;;;4993015;28;1007;-73
2023/08/04 12:14:23;;;;;;;;;;;21.30;67.50;;;;;;5004553;28;1294;-73
2023/08/04 12:16:52;;;;;;;;;;;21.30;67.50;;;;;;5002645;28;1966;-74
2023/08/04 12:19:18;;;;;;;;;;;21.30;67.60;;;;;;4994286;28;1217;-73
2023/08/04 12:21:43;;;;;;;;;;;21.30;67.60;;;;;;4997740;28;1692;-72
2023/08/04 12:24:09;;;;;;;;;;;21.30;67.50;;;;;;4988335;28;1419;-73
2023/08/04 12:26:34;;;;;;;;;;;21.30;67.50;;;;;;4995304;28;1203;-71
2023/08/04 12:29:00;;;;;;;;;;;21.30;67.60;;;;;;4998635;28;2248;-73
2023/08/04 12:31:25;;;;;;;;;;;21.30;67.50;;;;;;4999246;28;1355;-70
2023/08/04 12:33:51;;;;;;;;;;;21.30;67.70;;;;;;5004219;28;1451;-71
2023/08/04 12:36:16;;;;;;;;;;;21.30;67.50;;;;;;5008356;28;1902;-70
2023/08/04 12:38:42;;;;;;;;;;;21.30;67.50;;;;;;5000494;28;753;-71
2023/08/04 12:41:09;;;;;;;;;;;21.30;67.60;;;;;;4991644;28;821;-72
2023/08/04 12:43:34;;;;;;;;;;;21.30;67.50;;;;;;4997573;28;1366;-74
2023/08/04 12:46:00;;;;;;;;;;;21.30;67.60;;;;;;4990358;28;1244;-75
2023/08/04 12:48:25;;;;;;;;;;;21.30;67.50;;;;;;4999543;28;916;-73
2023/08/04 12:50:51;;;;;;;;;;;21.40;67.60;;;;;;4998315;28;831;-72
2023/08/04 12:53:16;;;;;;;;;;;21.40;67.60;;;;;;4998849;28;1356;-73
2023/08/04 12:55:42;;;;;;;;;;;21.40;67.70;;;;;;5001308;28;836;-72
2023/08/04 12:58:07;;;;;;;;;;;21.40;67.60;;;;;;5003134;28;1907;-72
2023/08/04 13:00:33;;;;;;;;;;;21.40;67.10;;;;;;5008376;28;840;-72
2023/08/04 13:02:58;;;;;;;;;;;21.40;66.80;;;;;;5001976;28;892;-72
2023/08/04 13:05:23;;;;;;;;;;;21.40;66.50;;;;;;5001124;28;1379;-74
2023/08/04 13:07:49;;;;;;;;;;;21.40;66.60;;;;;;4993379;28;1107;-72
2023/08/04 13:10:14;;;;;;;;;;;21.40;66.60;;;;;;5002478;28;1070;-73
2023/08/04 13:12:40;;;;;;;;;;;21.40;66.20;;;;;;5003711;28;861;-72
2023/08/04 13:15:06;;;;;;;;;;;21.40;66.60;;;;;;5004525;28;1255;-72
2023/08/04 13:17:31;;;;;;;;;;;21.40;66.80;;;;;;5004037;28;1895;-72
2023/08/04 13:19:57;;;;;;;;;;;21.40;66.70;;;;;;5000200;28;975;-72
2023/08/04 13:22:22;;;;;;;;;;;21.40;66.60;;;;;;4999583;28;904;-72
2023/08/04 13:24:49;;;;;;;;;;;21.40;66.80;;;;;;5002570;28;1293;-72
2023/08/04 13:27:15;;;;;;;;;;;21.40;67.00;;;;;;5002816;28;1368;-73
2023/08/04 13:29:40;;;;;;;;;;;21.50;66.90;;;;;;4998148;28;864;-72
2023/08/04 13:32:06;;;;;;;;;;;21.40;66.40;;;;;;4993055;28;1561;-72
2023/08/04 13:34:32;;;;;;;;;;;21.40;66.30;;;;;;5002044;28;1374;-73
2023/08/04 13:36:57;;;;;;;;;;;21.50;65.70;;;;;;4999747;28;2018;-73
2023/08/04 13:39:23;;;;;;;;;;;21.50;65.60;;;;;;5000898;28;861;-70
2023/08/04 13:41:48;;;;;;;;;;;21.50;66.10;;;;;;4998203;28;852;-71
2023/08/04 13:44:14;;;;;;;;;;;21.50;65.80;;;;;;4999682;28;1355;-71
2023/08/04 13:46:40;;;;;;;;;;;21.50;65.40;;;;;;4997506;28;841;-71
2023/08/04 13:49:05;;;;;;;;;;;21.50;64.70;;;;;;5002550;28;781;-71
2023/08/04 13:51:30;;;;;;;;;;;21.50;64.70;;;;;;5000898;28;872;-71
2023/08/04 13:53:56;;;;;;;;;;;21.50;64.40;;;;;;5001907;28;1365;-71
2023/08/04 13:56:21;;;;;;;;;;;21.50;64.70;;;;;;4999453;28;1898;-71
2023/08/04 13:58:51;;;;;;;;;;;21.50;65.50;;;;;;4996593;28;861;-70
2023/08/04 14:01:16;;;;;;;;;;;21.50;65.70;;;;;;4998870;28;900;-71
2023/08/04 14:03:42;;;;;;;;;;;21.50;65.80;;;;;;4986192;28;1259;-71
2023/08/04 14:06:07;;;;;;;;;;;21.50;65.60;;;;;;5000616;28;1015;-71
2023/08/04 14:08:33;;;;;;;;;;;21.50;65.30;;;;;;4999628;28;799;-71
2023/08/04 14:10:58;;;;;;;;;;;21.50;65.20;;;;;;5001345;28;888;-73
2023/08/04 14:13:23;;;;;;;;;;;21.50;65.50;;;;;;4999623;28;1340;-71
2023/08/04 14:15:49;;;;;;;;;;;21.50;65.00;;;;;;4998760;28;840;-72
2023/08/04 14:18:14;;;;;;;;;;;21.50;65.00;;;;;;5000847;28;1875;-73
2023/08/04 14:20:40;;;;;;;;;;;21.50;65.40;;;;;;5000347;28;975;-71
2023/08/04 14:23:06;;;;;;;;;;;21.50;65.60;;;;;;4984428;28;937;-72
2023/08/04 14:25:31;;;;;;;;;;;21.50;64.90;;;;;;4998388;28;1250;-72
2023/08/04 14:27:57;;;;;;;;;;;21.50;65.40;;;;;;4994618;28;853;-72